createdAt,value
2019-06-08T00:01:20.608Z,15.30
2019-06-08T00:04:05.604Z,15.30
2019-06-08T00:06:50.412Z,15.30
2019-06-08T00:09:35.408Z,15.30
2019-06-08T00:12:21.318Z,15.20
2019-06-08T00:15:07.304Z,15.10
2019-06-08T00:17:52.658Z,15.10
2019-06-08T00:20:37.768Z,15.00
2019-06-08T00:23:22.478Z,15.00
2019-06-08T00:26:07.179Z,15.00
2019-06-08T00:28:52.014Z,14.90
2019-06-08T00:31:36.871Z,15.00
2019-06-08T00:34:22.730Z,14.90
2019-06-08T00:37:07.993Z,14.90
2019-06-08T00:39:52.574Z,14.90
2019-06-08T00:42:37.519Z,14.90
2019-06-08T00:45:23.575Z,14.90
2019-06-08T00:48:08.948Z,15.00
2019-06-08T00:50:53.679Z,15.00
2019-06-08T00:53:38.445Z,15.00
2019-06-08T00:56:23.838Z,15.00
2019-06-08T00:59:08.914Z,15.00
2019-06-08T01:01:54.507Z,15.00
2019-06-08T01:04:39.385Z,15.00
2019-06-08T01:07:26.195Z,14.90
2019-06-08T01:10:11.622Z,14.90
2019-06-08T01:12:57.042Z,14.90
2019-06-08T01:15:42.419Z,15.00
2019-06-08T01:18:27.470Z,15.00
2019-06-08T01:21:12.303Z,15.00
2019-06-08T01:23:57.190Z,15.00
2019-06-08T01:26:41.822Z,15.00
2019-06-08T01:29:28.127Z,15.00
2019-06-08T01:32:13.388Z,14.90
2019-06-08T01:34:58.572Z,14.80
2019-06-08T01:37:43.747Z,14.80
2019-06-08T01:40:29.514Z,14.80
2019-06-08T01:43:16.336Z,14.70
2019-06-08T01:46:01.695Z,14.70
2019-06-08T01:48:48.063Z,14.60
2019-06-08T01:51:32.935Z,14.50
2019-06-08T01:54:18.261Z,14.50
2019-06-08T01:57:04.022Z,14.40
2019-06-08T01:59:48.938Z,14.40
2019-06-08T02:02:34.271Z,14.30
2019-06-08T02:05:19.824Z,14.30
2019-06-08T02:08:04.718Z,14.20
2019-06-08T02:10:49.902Z,14.20
2019-06-08T02:13:35.336Z,14.10
2019-06-08T02:16:20.222Z,14.10
2019-06-08T02:19:05.256Z,14.00
2019-06-08T02:21:50.777Z,14.00
2019-06-08T02:24:35.892Z,13.90
2019-06-08T02:27:20.705Z,13.90
2019-06-08T02:30:09.223Z,13.80
2019-06-08T02:32:54.338Z,13.80
2019-06-08T02:35:39.584Z,13.80
2019-06-08T02:38:24.428Z,13.70
2019-06-08T02:41:09.086Z,13.70
2019-06-08T02:43:53.850Z,13.60
2019-06-08T02:46:40.415Z,13.60
2019-06-08T02:49:25.945Z,13.60
2019-06-08T02:52:11.772Z,13.60
2019-06-08T02:54:57.204Z,13.60
2019-06-08T02:57:43.268Z,13.60
2019-06-08T03:00:29.281Z,13.60
2019-06-08T03:03:14.858Z,13.60
2019-06-08T03:06:00.833Z,13.60
2019-06-08T03:08:48.178Z,13.60
2019-06-08T03:11:34.753Z,13.60
2019-06-08T03:14:23.462Z,13.60
2019-06-08T03:17:08.557Z,13.60
2019-06-08T03:19:53.552Z,13.70
2019-06-08T03:22:39.508Z,13.70
2019-06-08T03:25:25.343Z,13.70
2019-06-08T03:28:10.023Z,13.70
2019-06-08T03:30:55.349Z,13.70
2019-06-08T03:33:50.994Z,13.80
2019-06-08T03:36:28.469Z,13.80
2019-06-08T03:39:13.282Z,13.80
2019-06-08T03:41:57.934Z,13.90
2019-06-08T03:44:43.287Z,13.90
2019-06-08T03:47:29.795Z,14.00
2019-06-08T03:50:14.845Z,14.00
2019-06-08T03:53:00.022Z,14.10
2019-06-08T03:55:47.051Z,14.10
2019-06-08T03:58:34.196Z,14.00
2019-06-08T04:01:18.994Z,14.00
2019-06-08T04:04:04.280Z,14.00
2019-06-08T04:06:50.081Z,14.00
2019-06-08T04:09:37.624Z,14.00
2019-06-08T04:12:22.563Z,14.00
2019-06-08T04:15:09.067Z,14.00
2019-06-08T04:17:53.780Z,14.00
2019-06-08T04:20:40.335Z,14.00
2019-06-08T04:23:25.937Z,13.90
2019-06-08T04:26:10.623Z,13.90
2019-06-08T04:28:55.381Z,13.90
2019-06-08T04:31:41.787Z,13.90
2019-06-08T04:34:26.976Z,13.90
2019-06-08T04:37:15.769Z,13.90
2019-06-08T04:39:58.485Z,13.90
2019-06-08T04:42:44.426Z,14.00
2019-06-08T04:45:30.400Z,14.00
2019-06-08T04:48:15.018Z,14.00
2019-06-08T04:51:00.038Z,14.00
2019-06-08T04:53:45.562Z,14.10
2019-06-08T04:56:32.137Z,14.10
2019-06-08T04:59:17.152Z,14.20
2019-06-08T05:02:02.103Z,14.30
2019-06-08T05:04:47.050Z,14.40
2019-06-08T05:07:32.603Z,14.40
2019-06-08T05:10:18.170Z,14.40
2019-06-08T05:13:03.775Z,14.50
2019-06-08T05:15:50.305Z,14.60
2019-06-08T05:18:35.777Z,14.70
2019-06-08T05:21:20.827Z,14.80
2019-06-08T05:24:05.988Z,14.90
2019-06-08T05:26:51.095Z,14.90
2019-06-08T05:29:36.314Z,15.00
2019-06-08T05:32:20.994Z,15.10
2019-06-08T05:35:06.463Z,15.10
2019-06-08T05:37:51.673Z,15.20
2019-06-08T05:40:37.807Z,15.30
2019-06-08T05:43:22.846Z,15.40
2019-06-08T05:46:07.557Z,15.40
2019-06-08T05:48:52.507Z,15.50
2019-06-08T05:51:37.338Z,15.50
2019-06-08T05:54:22.403Z,15.60
2019-06-08T05:57:07.209Z,15.70
2019-06-08T05:59:52.381Z,15.80
2019-06-08T06:02:37.556Z,15.90
2019-06-08T06:05:23.981Z,15.90
2019-06-08T06:08:18.495Z,15.80
2019-06-08T06:10:55.565Z,15.80
2019-06-08T06:13:40.597Z,15.70
2019-06-08T06:16:25.742Z,15.70
2019-06-08T06:19:10.677Z,15.60
2019-06-08T06:21:55.811Z,15.60
2019-06-08T06:24:41.768Z,15.60
2019-06-08T06:27:27.003Z,15.50
2019-06-08T06:30:12.696Z,15.50
2019-06-08T06:32:58.083Z,15.50
2019-06-08T06:35:43.902Z,15.70
2019-06-08T06:38:28.830Z,15.80
2019-06-08T06:41:13.587Z,15.70
2019-06-08T06:43:58.577Z,15.80
2019-06-08T06:46:43.983Z,15.70
2019-06-08T06:49:28.957Z,15.70
2019-06-08T06:52:13.821Z,15.80
2019-06-08T06:54:58.728Z,15.80
2019-06-08T06:57:43.664Z,15.90
2019-06-08T07:00:31.409Z,15.90
2019-06-08T07:03:16.231Z,16.00
2019-06-08T07:06:01.143Z,16.00
2019-06-08T07:08:50.611Z,16.10
2019-06-08T07:11:35.939Z,16.20
2019-06-08T07:14:22.729Z,16.20
2019-06-08T07:17:08.230Z,16.10
2019-06-08T07:19:52.952Z,16.10
2019-06-08T07:22:37.957Z,16.00
2019-06-08T07:25:22.843Z,16.00
2019-06-08T07:28:07.884Z,16.00
2019-06-08T07:30:52.872Z,16.10
2019-06-08T07:33:38.462Z,16.20
2019-06-08T07:36:24.599Z,16.40
2019-06-08T07:39:09.850Z,16.60
2019-06-08T07:41:55.857Z,16.90
2019-06-08T07:44:42.017Z,17.10
2019-06-08T07:47:27.433Z,17.10
2019-06-08T07:50:14.533Z,17.20
2019-06-08T07:52:59.600Z,17.20
2019-06-08T07:55:45.482Z,17.20
2019-06-08T07:58:30.962Z,17.10
2019-06-08T08:01:15.840Z,17.10
2019-06-08T08:04:01.288Z,17.00
2019-06-08T08:06:45.981Z,17.00
2019-06-08T08:09:31.351Z,17.00
2019-06-08T08:12:16.759Z,16.80
2019-06-08T08:15:03.551Z,16.70
2019-06-08T08:17:49.078Z,16.70
2019-06-08T08:20:34.671Z,16.60
2019-06-08T08:23:19.765Z,16.60
2019-06-08T08:26:04.732Z,16.50
2019-06-08T08:28:52.933Z,16.60
2019-06-08T08:31:37.434Z,16.60
2019-06-08T08:34:22.745Z,16.60
2019-06-08T08:37:09.624Z,16.60
2019-06-08T08:39:55.569Z,16.70
2019-06-08T08:42:40.660Z,16.80
2019-06-08T08:45:27.627Z,16.80
2019-06-08T08:48:24.605Z,16.80
2019-06-08T08:51:03.272Z,16.80
2019-06-08T08:53:48.160Z,16.80
2019-06-08T08:56:33.753Z,16.80
2019-06-08T08:59:18.318Z,16.90
2019-06-08T09:02:03.529Z,16.80
2019-06-08T09:04:48.484Z,16.90
2019-06-08T09:07:33.519Z,17.00
2019-06-08T09:10:18.998Z,17.10
2019-06-08T09:13:04.754Z,17.20
2019-06-08T09:15:49.641Z,17.30
2019-06-08T09:18:34.529Z,17.40
2019-06-08T09:21:19.826Z,17.40
2019-06-08T09:24:07.695Z,17.50
2019-06-08T09:26:54.133Z,17.60
2019-06-08T09:29:40.037Z,17.60
2019-06-08T09:32:24.907Z,17.70
2019-06-08T09:35:10.432Z,17.80
2019-06-08T09:37:59.445Z,17.90
2019-06-08T09:40:42.957Z,17.80
2019-06-08T09:43:28.972Z,17.90
2019-06-08T09:46:14.192Z,18.00
2019-06-08T09:49:04.815Z,18.10
2019-06-08T09:51:48.477Z,18.20
2019-06-08T09:54:32.899Z,18.10
2019-06-08T09:57:18.850Z,18.10
2019-06-08T10:00:15.350Z,18.10
2019-06-08T10:02:54.674Z,18.20
2019-06-08T10:05:39.453Z,18.20
2019-06-08T10:08:24.613Z,18.20
2019-06-08T10:11:09.860Z,18.20
2019-06-08T10:13:57.060Z,18.20
2019-06-08T10:16:42.352Z,18.30
2019-06-08T10:19:27.557Z,18.50
2019-06-08T10:22:12.343Z,18.80
2019-06-08T10:25:00.272Z,18.90
2019-06-08T10:27:44.147Z,18.80
2019-06-08T10:30:30.399Z,18.90
2019-06-08T10:33:18.261Z,19.00
2019-06-08T10:36:05.270Z,19.10
2019-06-08T10:38:49.618Z,19.00
2019-06-08T10:41:34.740Z,19.00
2019-06-08T10:44:20.064Z,19.10
2019-06-08T10:47:06.671Z,19.10
2019-06-08T10:49:51.953Z,19.10
2019-06-08T10:52:39.132Z,19.10
2019-06-08T10:55:24.023Z,19.00
2019-06-08T10:58:10.895Z,18.70
2019-06-08T11:00:55.526Z,18.40
2019-06-08T11:03:40.765Z,18.20
2019-06-08T11:06:28.506Z,18.10
2019-06-08T11:09:15.320Z,18.00
2019-06-08T11:12:01.974Z,18.10
2019-06-08T11:14:48.184Z,18.10
2019-06-08T11:17:33.638Z,18.10
2019-06-08T11:20:20.563Z,18.10
2019-06-08T11:23:06.030Z,18.10
2019-06-08T11:25:52.551Z,18.00
2019-06-08T11:28:38.285Z,18.20
2019-06-08T11:31:24.607Z,18.50
2019-06-08T11:34:10.701Z,18.90
2019-06-08T11:36:55.898Z,18.90
2019-06-08T11:39:41.373Z,18.80
2019-06-08T11:42:28.510Z,18.70
2019-06-08T11:45:14.781Z,18.60
2019-06-08T11:48:00.473Z,18.70
2019-06-08T11:50:49.040Z,19.00
2019-06-08T11:53:34.839Z,19.00
2019-06-08T11:56:20.677Z,19.00
2019-06-08T11:59:07.200Z,19.20
2019-06-08T12:01:52.122Z,19.30
2019-06-08T12:04:38.411Z,19.30
2019-06-08T12:07:24.155Z,19.10
2019-06-08T12:10:12.167Z,19.20
2019-06-08T12:12:57.395Z,19.40
2019-06-08T12:15:42.550Z,19.60
2019-06-08T12:18:27.614Z,19.70
2019-06-08T12:21:13.276Z,19.90
2019-06-08T12:23:59.341Z,19.90
2019-06-08T12:26:44.842Z,20.00
2019-06-08T12:29:29.575Z,20.20
2019-06-08T12:32:16.234Z,20.50
2019-06-08T12:35:01.170Z,20.40
2019-06-08T12:37:48.825Z,20.40
2019-06-08T12:40:33.610Z,20.20
2019-06-08T12:43:20.300Z,20.10
2019-06-08T12:46:08.243Z,20.10
2019-06-08T12:48:52.572Z,20.20
2019-06-08T12:51:37.336Z,19.90
2019-06-08T12:54:22.384Z,19.70
2019-06-08T12:57:10.639Z,19.60
2019-06-08T12:59:54.869Z,19.50
2019-06-08T13:02:41.592Z,19.30
2019-06-08T13:05:27.630Z,19.20
2019-06-08T13:08:13.431Z,19.20
2019-06-08T13:11:00.399Z,19.20
2019-06-08T13:13:45.354Z,19.30
2019-06-08T13:16:30.715Z,19.30
2019-06-08T13:19:15.977Z,19.30
2019-06-08T13:22:02.036Z,19.50
2019-06-08T13:24:47.878Z,19.50
2019-06-08T13:27:32.641Z,19.60
2019-06-08T13:30:22.497Z,19.70
2019-06-08T13:33:04.720Z,19.80
2019-06-08T13:35:50.114Z,19.90
2019-06-08T13:38:37.578Z,20.00
2019-06-08T13:41:26.246Z,19.90
2019-06-08T13:44:09.636Z,19.90
2019-06-08T13:46:54.921Z,19.80
2019-06-08T13:49:39.800Z,19.90
2019-06-08T13:52:25.854Z,20.30
2019-06-08T13:55:12.850Z,20.60
2019-06-08T13:57:58.152Z,20.90
2019-06-08T14:00:43.041Z,21.10
2019-06-08T14:03:27.958Z,21.20
2019-06-08T14:06:14.180Z,21.00
2019-06-08T14:08:59.509Z,20.70
2019-06-08T14:11:44.600Z,20.40
2019-06-08T14:14:32.952Z,20.40
2019-06-08T14:17:20.206Z,20.40
2019-06-08T14:20:07.893Z,20.40
2019-06-08T14:22:52.454Z,20.50
2019-06-08T14:25:47.911Z,20.40
2019-06-08T14:28:24.814Z,20.30
2019-06-08T14:31:11.801Z,20.10
2019-06-08T14:33:56.981Z,19.80
2019-06-08T14:36:41.991Z,19.60
2019-06-08T14:39:29.619Z,19.70
2019-06-08T14:42:14.050Z,20.10
2019-06-08T14:44:59.530Z,20.50
2019-06-08T14:47:44.817Z,20.50
2019-06-08T14:50:31.244Z,20.50
2019-06-08T14:53:18.854Z,20.30
2019-06-08T14:56:08.502Z,20.00
2019-06-08T14:58:50.630Z,19.90
2019-06-08T15:01:37.994Z,19.80
2019-06-08T15:04:26.688Z,19.80
2019-06-08T15:07:10.120Z,19.90
2019-06-08T15:09:54.869Z,20.20
2019-06-08T15:12:40.152Z,20.20
2019-06-08T15:15:25.865Z,20.10
2019-06-08T15:18:11.886Z,20.00
2019-06-08T15:20:58.133Z,19.80
2019-06-08T15:23:43.110Z,19.80
2019-06-08T15:26:36.670Z,20.30
2019-06-08T15:29:15.782Z,21.00
2019-06-08T15:32:00.541Z,21.40
2019-06-08T15:34:47.692Z,21.70
2019-06-08T15:37:32.345Z,21.80
2019-06-08T15:40:17.808Z,21.80
2019-06-08T15:43:03.076Z,21.80
2019-06-08T15:45:51.422Z,21.90
2019-06-08T15:48:38.028Z,22.10
2019-06-08T15:51:22.736Z,22.40
2019-06-08T15:54:08.146Z,22.70
2019-06-08T15:56:53.748Z,22.90
2019-06-08T15:59:41.756Z,23.30
2019-06-08T16:02:27.318Z,23.10
2019-06-08T16:05:12.836Z,22.80
2019-06-08T16:07:57.913Z,23.10
2019-06-08T16:10:43.071Z,23.40
2019-06-08T16:13:28.523Z,23.30
2019-06-08T16:16:13.569Z,23.00
2019-06-08T16:18:58.770Z,22.30
2019-06-08T16:21:43.621Z,21.70
2019-06-08T16:24:29.731Z,21.30
2019-06-08T16:27:14.760Z,21.00
2019-06-08T16:29:59.691Z,20.90
2019-06-08T16:32:44.528Z,20.90
2019-06-08T16:35:29.670Z,21.00
2019-06-08T16:38:14.640Z,20.80
2019-06-08T16:40:59.338Z,20.60
2019-06-08T16:43:44.494Z,20.50
2019-06-08T16:46:30.114Z,20.30
2019-06-08T16:49:15.481Z,20.10
2019-06-08T16:52:00.611Z,20.00
2019-06-08T16:54:45.843Z,19.80
2019-06-08T16:57:31.012Z,19.60
2019-06-08T17:00:30.281Z,19.50
2019-06-08T17:03:03.271Z,19.40
2019-06-08T17:05:48.403Z,19.20
2019-06-08T17:08:37.080Z,19.10
2019-06-08T17:11:22.070Z,18.60
2019-06-08T17:14:07.140Z,18.10
2019-06-08T17:16:52.264Z,17.60
2019-06-08T17:19:38.287Z,17.20
2019-06-08T17:22:23.526Z,17.10
2019-06-08T17:25:08.695Z,17.00
2019-06-08T17:27:53.634Z,17.00
2019-06-08T17:30:39.379Z,17.10
2019-06-08T17:33:24.811Z,17.10
2019-06-08T17:36:09.726Z,17.20
2019-06-08T17:38:54.974Z,17.20
2019-06-08T17:41:40.198Z,17.20
2019-06-08T17:44:25.450Z,17.10
2019-06-08T17:47:10.490Z,17.20
2019-06-08T17:49:55.524Z,17.10
2019-06-08T17:52:41.103Z,17.20
2019-06-08T17:55:26.530Z,17.20
2019-06-08T17:58:11.450Z,17.20
2019-06-08T18:00:56.672Z,17.30
2019-06-08T18:03:44.726Z,17.30
2019-06-08T18:06:29.947Z,17.20
2019-06-08T18:09:17.347Z,17.30
2019-06-08T18:12:04.686Z,17.30
2019-06-08T18:14:50.076Z,17.40
2019-06-08T18:17:39.141Z,17.40
2019-06-08T18:20:24.016Z,17.40
2019-06-08T18:23:09.048Z,17.40
2019-06-08T18:25:54.000Z,17.20
2019-06-08T18:28:41.213Z,17.10
2019-06-08T18:31:27.675Z,17.10
2019-06-08T18:34:14.295Z,17.00
2019-06-08T18:36:59.495Z,17.00
2019-06-08T18:39:45.973Z,16.90
2019-06-08T18:42:31.545Z,16.90
2019-06-08T18:45:18.198Z,16.80
2019-06-08T18:48:07.010Z,16.70
2019-06-08T18:50:51.685Z,16.60
2019-06-08T18:53:54.391Z,16.60
2019-06-08T18:56:23.430Z,16.60
2019-06-08T18:59:08.714Z,16.60
2019-06-08T19:01:53.718Z,16.60
2019-06-08T19:04:41.542Z,16.60
2019-06-08T19:07:28.282Z,16.50
2019-06-08T19:10:18.689Z,16.50
2019-06-08T19:13:04.843Z,16.50
2019-06-08T19:15:52.975Z,16.50
2019-06-08T19:18:41.433Z,16.40
2019-06-08T19:21:23.935Z,16.40
2019-06-08T19:24:09.806Z,16.40
2019-06-08T19:26:55.121Z,16.40
2019-06-08T19:29:42.148Z,16.30
2019-06-08T19:32:28.070Z,16.30
2019-06-08T19:35:13.778Z,16.20
2019-06-08T19:37:59.031Z,16.10
2019-06-08T19:40:44.179Z,16.00
2019-06-08T19:43:30.037Z,15.90
2019-06-08T19:46:17.924Z,15.80
2019-06-08T19:49:01.931Z,15.80
2019-06-08T19:51:48.487Z,15.80
2019-06-08T19:54:33.694Z,15.80
2019-06-08T19:57:18.708Z,15.80
2019-06-08T20:00:07.297Z,15.70
2019-06-08T20:02:54.987Z,15.70
2019-06-08T20:05:38.679Z,15.70
2019-06-08T20:08:23.533Z,15.60
2019-06-08T20:11:09.412Z,15.50
2019-06-08T20:13:54.407Z,15.40
2019-06-08T20:16:40.444Z,15.40
2019-06-08T20:19:27.943Z,15.30
2019-06-08T20:22:13.358Z,15.30
2019-06-08T20:24:58.536Z,15.20
2019-06-08T20:27:45.251Z,15.10
2019-06-08T20:30:32.708Z,15.10
2019-06-08T20:33:19.329Z,14.90
2019-06-08T20:36:04.584Z,14.80
2019-06-08T20:38:50.807Z,14.60
2019-06-08T20:41:37.687Z,14.50
2019-06-08T20:44:22.935Z,14.50
2019-06-08T20:47:08.517Z,14.40
2019-06-08T20:49:53.668Z,14.30
2019-06-08T20:52:38.973Z,14.30
2019-06-08T20:55:24.292Z,14.20
2019-06-08T20:58:09.245Z,14.10
2019-06-08T21:00:54.309Z,14.00
2019-06-08T21:03:39.827Z,14.00
2019-06-08T21:06:24.872Z,13.90
2019-06-08T21:09:09.948Z,13.90
2019-06-08T21:11:56.346Z,13.90
2019-06-08T21:14:42.020Z,13.90
2019-06-08T21:17:28.910Z,13.90
2019-06-08T21:20:13.869Z,14.00
2019-06-08T21:23:00.048Z,14.00
2019-06-08T21:25:45.270Z,14.10
2019-06-08T21:28:32.835Z,14.10
2019-06-08T21:31:19.065Z,14.10
2019-06-08T21:34:04.170Z,14.20
2019-06-08T21:36:50.834Z,14.20
2019-06-08T21:39:39.010Z,14.30
2019-06-08T21:42:23.289Z,14.30
2019-06-08T21:45:09.607Z,14.50
2019-06-08T21:47:56.720Z,14.40
2019-06-08T21:50:42.156Z,14.50
2019-06-08T21:53:27.636Z,14.50
2019-06-08T21:56:12.711Z,14.50
2019-06-08T21:59:00.906Z,14.60
2019-06-08T22:01:46.263Z,14.60
2019-06-08T22:04:31.499Z,14.60
2019-06-08T22:07:17.699Z,14.50
2019-06-08T22:10:07.650Z,14.60
2019-06-08T22:12:53.836Z,14.50
2019-06-08T22:15:40.004Z,14.50
2019-06-08T22:18:27.305Z,14.50
2019-06-08T22:21:12.091Z,14.40
2019-06-08T22:23:59.071Z,14.40
2019-06-08T22:26:44.232Z,14.40
2019-06-08T22:29:29.468Z,14.40
2019-06-08T22:32:14.719Z,14.30
2019-06-08T22:35:01.829Z,14.30
2019-06-08T22:37:48.027Z,14.20
2019-06-08T22:40:33.245Z,14.10
2019-06-08T22:43:19.559Z,14.10
2019-06-08T22:46:05.114Z,14.10
2019-06-08T22:48:53.056Z,13.90
2019-06-08T22:51:38.516Z,13.80
2019-06-08T22:54:23.727Z,13.70
2019-06-08T22:57:08.438Z,13.70
2019-06-08T22:59:54.249Z,13.60
2019-06-08T23:02:39.729Z,13.50
2019-06-08T23:05:24.468Z,13.30
2019-06-08T23:08:09.682Z,13.30
2019-06-08T23:10:54.658Z,13.20
2019-06-08T23:13:39.788Z,13.10
2019-06-08T23:16:26.912Z,13.00
2019-06-08T23:19:11.448Z,12.90
2019-06-08T23:22:00.979Z,12.90
2019-06-08T23:24:47.601Z,12.80
2019-06-08T23:27:32.495Z,12.80
2019-06-08T23:30:18.589Z,12.80
2019-06-08T23:33:05.683Z,12.80
2019-06-08T23:36:32.294Z,12.90
2019-06-08T23:38:37.712Z,13.00
2019-06-08T23:41:22.397Z,13.00
2019-06-08T23:44:07.843Z,13.10
2019-06-08T23:46:53.137Z,13.20
2019-06-08T23:49:38.113Z,13.20
2019-06-08T23:52:23.422Z,13.20
2019-06-08T23:55:11.471Z,13.20
2019-06-08T23:57:56.134Z,13.20
